sensor_id;sensor_type;location;lat;lon;timestamp;pressure;altitude;pressure_sealevel;temperature;humidity
36380;BME280;22411;53.016;18.632;2023-04-23T00:01:04;100334.03;;;9.74;100.00
36380;BME280;22411;53.016;18.632;2023-04-23T00:03:37;100335.41;;;9.67;100.00
36380;BME280;22411;53.016;18.632;2023-04-23T00:06:05;100331.03;;;9.67;100.00
36380;BME280;22411;53.016;18.632;2023-04-23T00:08:31;100329.50;;;9.65;100.00
36380;BME280;22411;53.016;18.632;2023-04-23T00:10:58;100329.06;;;9.58;100.00
36380;BME280;22411;53.016;18.632;2023-04-23T00:13:25;100326.69;;;9.55;100.00
36380;BME280;22411;53.016;18.632;2023-04-23T00:15:51;100321.94;;;9.49;100.00
36380;BME280;22411;53.016;18.632;2023-04-23T00:18:18;100327.19;;;9.48;100.00
36380;BME280;22411;53.016;18.632;2023-04-23T00:20:45;100319.66;;;9.45;100.00
36380;BME280;22411;53.016;18.632;2023-04-23T00:23:15;100314.69;;;9.41;100.00
36380;BME280;22411;53.016;18.632;2023-04-23T00:25:41;100315.81;;;9.37;100.00
36380;BME280;22411;53.016;18.632;2023-04-23T00:28:10;100317.03;;;9.32;100.00
36380;BME280;22411;53.016;18.632;2023-04-23T00:30:36;100305.03;;;9.31;100.00
36380;BME280;22411;53.016;18.632;2023-04-23T00:33:03;100311.25;;;9.28;100.00
36380;BME280;22411;53.016;18.632;2023-04-23T00:35:29;100304.53;;;9.26;100.00
36380;BME280;22411;53.016;18.632;2023-04-23T00:37:55;100300.38;;;9.23;100.00
36380;BME280;22411;53.016;18.632;2023-04-23T00:40:22;100298.09;;;9.19;100.00
36380;BME280;22411;53.016;18.632;2023-04-23T00:42:49;100295.59;;;9.17;100.00
36380;BME280;22411;53.016;18.632;2023-04-23T00:45:17;100294.06;;;9.14;100.00
36380;BME280;22411;53.016;18.632;2023-04-23T00:47:44;100285.47;;;9.14;100.00
36380;BME280;22411;53.016;18.632;2023-04-23T00:50:11;100290.00;;;9.10;100.00
36380;BME280;22411;53.016;18.632;2023-04-23T00:52:38;100290.22;;;9.07;100.00
36380;BME280;22411;53.016;18.632;2023-04-23T00:55:06;100286.59;;;9.10;100.00
36380;BME280;22411;53.016;18.632;2023-04-23T00:57:35;100280.50;;;9.11;100.00
36380;BME280;22411;53.016;18.632;2023-04-23T01:00:04;100279.13;;;9.05;100.00
36380;BME280;22411;53.016;18.632;2023-04-23T01:02:34;100277.59;;;9.03;100.00
36380;BME280;22411;53.016;18.632;2023-04-23T01:05:03;100277.91;;;8.98;100.00
36380;BME280;22411;53.016;18.632;2023-04-23T01:07:33;100282.31;;;8.96;100.00
36380;BME280;22411;53.016;18.632;2023-04-23T01:10:02;100273.84;;;8.94;100.00
36380;BME280;22411;53.016;18.632;2023-04-23T01:12:30;100280.06;;;8.92;100.00
36380;BME280;22411;53.016;18.632;2023-04-23T01:14:56;100279.00;;;8.94;100.00
36380;BME280;22411;53.016;18.632;2023-04-23T01:17:23;100277.38;;;8.93;100.00
36380;BME280;22411;53.016;18.632;2023-04-23T01:19:51;100274.13;;;8.89;100.00
36380;BME280;22411;53.016;18.632;2023-04-23T01:22:19;100271.78;;;8.86;100.00
36380;BME280;22411;53.016;18.632;2023-04-23T01:24:46;100276.94;;;8.86;100.00
36380;BME280;22411;53.016;18.632;2023-04-23T01:27:13;100270.00;;;8.87;100.00
36380;BME280;22411;53.016;18.632;2023-04-23T01:29:40;100271.78;;;8.86;100.00
36380;BME280;22411;53.016;18.632;2023-04-23T01:32:07;100270.19;;;8.84;100.00
36380;BME280;22411;53.016;18.632;2023-04-23T01:34:34;100265.25;;;8.81;100.00
36380;BME280;22411;53.016;18.632;2023-04-23T01:37:02;100262.75;;;8.79;100.00
36380;BME280;22411;53.016;18.632;2023-04-23T01:39:28;100269.38;;;8.83;100.00
36380;BME280;22411;53.016;18.632;2023-04-23T01:41:55;100264.31;;;8.82;100.00
36380;BME280;22411;53.016;18.632;2023-04-23T01:44:22;100264.19;;;8.83;100.00
36380;BME280;22411;53.016;18.632;2023-04-23T01:46:49;100266.16;;;8.80;100.00
36380;BME280;22411;53.016;18.632;2023-04-23T01:49:15;100266.97;;;8.80;100.00
36380;BME280;22411;53.016;18.632;2023-04-23T01:51:42;100270.59;;;8.78;100.00
36380;BME280;22411;53.016;18.632;2023-04-23T01:54:08;100259.53;;;8.76;100.00
36380;BME280;22411;53.016;18.632;2023-04-23T01:56:35;100262.31;;;8.73;100.00
36380;BME280;22411;53.016;18.632;2023-04-23T01:59:02;100258.91;;;8.72;100.00
36380;BME280;22411;53.016;18.632;2023-04-23T02:01:43;100259.72;;;8.73;100.00
36380;BME280;22411;53.016;18.632;2023-04-23T02:04:11;100255.59;;;8.70;100.00
36380;BME280;22411;53.016;18.632;2023-04-23T02:06:39;100253.84;;;8.71;100.00
36380;BME280;22411;53.016;18.632;2023-04-23T02:09:06;100251.34;;;8.69;100.00
36380;BME280;22411;53.016;18.632;2023-04-23T02:11:32;100245.44;;;8.67;100.00
36380;BME280;22411;53.016;18.632;2023-04-23T02:13:59;100248.16;;;8.66;100.00
36380;BME280;22411;53.016;18.632;2023-04-23T02:16:26;100243.16;;;8.62;100.00
36380;BME280;22411;53.016;18.632;2023-04-23T02:18:53;100245.75;;;8.62;100.00
36380;BME280;22411;53.016;18.632;2023-04-23T02:21:23;100245.09;;;8.59;100.00
36380;BME280;22411;53.016;18.632;2023-04-23T02:23:49;100240.16;;;8.56;100.00
36380;BME280;22411;53.016;18.632;2023-04-23T02:26:16;100243.56;;;8.56;100.00
36380;BME280;22411;53.016;18.632;2023-04-23T02:28:44;100240.97;;;8.56;100.00
36380;BME280;22411;53.016;18.632;2023-04-23T02:31:10;100236.75;;;8.55;100.00
36380;BME280;22411;53.016;18.632;2023-04-23T02:33:36;100230.09;;;8.51;100.00
36380;BME280;22411;53.016;18.632;2023-04-23T02:36:03;100232.16;;;8.46;100.00
36380;BME280;22411;53.016;18.632;2023-04-23T02:38:29;100235.78;;;8.44;100.00
36380;BME280;22411;53.016;18.632;2023-04-23T02:40:56;100237.50;;;8.43;100.00
36380;BME280;22411;53.016;18.632;2023-04-23T02:43:22;100229.16;;;8.40;100.00
36380;BME280;22411;53.016;18.632;2023-04-23T02:45:50;100229.22;;;8.38;100.00
36380;BME280;22411;53.016;18.632;2023-04-23T02:48:16;100220.75;;;8.36;100.00
36380;BME280;22411;53.016;18.632;2023-04-23T02:50:43;100222.47;;;8.35;100.00
36380;BME280;22411;53.016;18.632;2023-04-23T02:53:11;100224.22;;;8.35;100.00
36380;BME280;22411;53.016;18.632;2023-04-23T02:55:38;100226.00;;;8.34;100.00
36380;BME280;22411;53.016;18.632;2023-04-23T02:58:05;100227.81;;;8.32;100.00
36380;BME280;22411;53.016;18.632;2023-04-23T03:00:31;100231.97;;;8.35;100.00
36380;BME280;22411;53.016;18.632;2023-04-23T03:02:58;100221.00;;;8.31;100.00
36380;BME280;22411;53.016;18.632;2023-04-23T03:05:25;100211.72;;;8.29;100.00
36380;BME280;22411;53.016;18.632;2023-04-23T03:07:51;100217.81;;;8.28;100.00
36380;BME280;22411;53.016;18.632;2023-04-23T03:10:19;100218.00;;;8.25;100.00
36380;BME280;22411;53.016;18.632;2023-04-23T03:12:46;100220.47;;;8.26;100.00
36380;BME280;22411;53.016;18.632;2023-04-23T03:15:13;100213.75;;;8.24;100.00
36380;BME280;22411;53.016;18.632;2023-04-23T03:17:40;100215.69;;;8.20;100.00
36380;BME280;22411;53.016;18.632;2023-04-23T03:20:08;100215.97;;;8.16;100.00
36380;BME280;22411;53.016;18.632;2023-04-23T03:22:36;100209.81;;;8.18;100.00
36380;BME280;22411;53.016;18.632;2023-04-23T03:25:03;100211.47;;;8.19;100.00
36380;BME280;22411;53.016;18.632;2023-04-23T03:27:30;100206.41;;;8.18;100.00
36380;BME280;22411;53.016;18.632;2023-04-23T03:30:29;100207.31;;;8.17;100.00
36380;BME280;22411;53.016;18.632;2023-04-23T03:32:55;100209.00;;;8.18;100.00
36380;BME280;22411;53.016;18.632;2023-04-23T03:35:23;100209.81;;;8.18;100.00
36380;BME280;22411;53.016;18.632;2023-04-23T03:37:49;100209.81;;;8.18;100.00
36380;BME280;22411;53.016;18.632;2023-04-23T03:40:15;100211.75;;;8.15;100.00
36380;BME280;22411;53.016;18.632;2023-04-23T03:42:42;100206.75;;;8.11;100.00
36380;BME280;22411;53.016;18.632;2023-04-23T03:45:09;100208.44;;;8.12;100.00
36380;BME280;22411;53.016;18.632;2023-04-23T03:47:36;100206.59;;;8.15;100.00
36380;BME280;22411;53.016;18.632;2023-04-23T03:50:02;100203.91;;;8.16;100.00
36380;BME280;22411;53.016;18.632;2023-04-23T03:52:29;100201.25;;;8.18;100.00
36380;BME280;22411;53.016;18.632;2023-04-23T03:54:57;100213.28;;;8.17;100.00
36380;BME280;22411;53.016;18.632;2023-04-23T03:57:23;100193.50;;;8.18;100.00
36380;BME280;22411;53.016;18.632;2023-04-23T03:59:50;100201.97;;;8.20;100.00
36380;BME280;22411;53.016;18.632;2023-04-23T04:02:16;100207.47;;;8.28;100.00
36380;BME280;22411;53.016;18.632;2023-04-23T04:04:43;100199.91;;;8.25;100.00
36380;BME280;22411;53.016;18.632;2023-04-23T04:07:11;100205.91;;;8.25;100.00
36380;BME280;22411;53.016;18.632;2023-04-23T04:09:38;100202.31;;;8.28;100.00
36380;BME280;22411;53.016;18.632;2023-04-23T04:12:05;100203.22;;;8.27;100.00
36380;BME280;22411;53.016;18.632;2023-04-23T04:14:32;100207.56;;;8.26;100.00
36380;BME280;22411;53.016;18.632;2023-04-23T04:16:58;100204.69;;;8.31;100.00
36380;BME280;22411;53.016;18.632;2023-04-23T04:19:24;100208.84;;;8.33;100.00
36380;BME280;22411;53.016;18.632;2023-04-23T04:21:51;100205.97;;;8.38;100.00
36380;BME280;22411;53.016;18.632;2023-04-23T04:24:18;100211.88;;;8.40;100.00
36380;BME280;22411;53.016;18.632;2023-04-23T04:26:45;100203.31;;;8.40;100.00
36380;BME280;22411;53.016;18.632;2023-04-23T04:29:12;100201.44;;;8.42;100.00
36380;BME280;22411;53.016;18.632;2023-04-23T04:31:38;100202.38;;;8.41;100.00
36380;BME280;22411;53.016;18.632;2023-04-23T04:34:05;100203.03;;;8.44;100.00
36380;BME280;22411;53.016;18.632;2023-04-23T04:36:33;100207.78;;;8.50;100.00
36380;BME280;22411;53.016;18.632;2023-04-23T04:39:00;100213.38;;;8.57;100.00
36380;BME280;22411;53.016;18.632;2023-04-23T04:41:28;100199.78;;;8.68;100.00
36380;BME280;22411;53.016;18.632;2023-04-23T04:43:54;100207.22;;;8.72;100.00
36380;BME280;22411;53.016;18.632;2023-04-23T04:46:20;100212.09;;;8.77;100.00
36380;BME280;22411;53.016;18.632;2023-04-23T04:48:47;100217.03;;;8.80;100.00
36380;BME280;22411;53.016;18.632;2023-04-23T04:51:13;100209.22;;;8.81;100.00
36380;BME280;22411;53.016;18.632;2023-04-23T04:53:40;100202.00;;;8.86;100.00
36380;BME280;22411;53.016;18.632;2023-04-23T04:56:07;100200.13;;;8.88;100.00
36380;BME280;22411;53.016;18.632;2023-04-23T04:58:33;100197.13;;;8.95;100.00
36380;BME280;22411;53.016;18.632;2023-04-23T05:01:00;100199.22;;;9.02;100.00
36380;BME280;22411;53.016;18.632;2023-04-23T05:03:26;100196.00;;;9.11;100.00
36380;BME280;22411;53.016;18.632;2023-04-23T05:05:53;100196.63;;;9.15;100.00
36380;BME280;22411;53.016;18.632;2023-04-23T05:08:24;100195.50;;;9.19;100.00
36380;BME280;22411;53.016;18.632;2023-04-23T05:10:50;100194.88;;;9.28;100.00
36380;BME280;22411;53.016;18.632;2023-04-23T05:13:16;100197.56;;;9.39;100.00
36380;BME280;22411;53.016;18.632;2023-04-23T05:15:42;100193.81;;;9.43;100.00
36380;BME280;22411;53.016;18.632;2023-04-23T05:18:09;100194.94;;;9.52;100.00
36380;BME280;22411;53.016;18.632;2023-04-23T05:20:36;100199.50;;;9.61;100.00
36380;BME280;22411;53.016;18.632;2023-04-23T05:23:02;100194.72;;;9.68;100.00
36380;BME280;22411;53.016;18.632;2023-04-23T05:25:29;100193.25;;;9.77;100.00
36380;BME280;22411;53.016;18.632;2023-04-23T05:27:56;100192.41;;;9.89;100.00
36380;BME280;22411;53.016;18.632;2023-04-23T05:30:23;100197.53;;;10.02;100.00
36380;BME280;22411;53.016;18.632;2023-04-23T05:32:50;100198.63;;;10.10;100.00
36380;BME280;22411;53.016;18.632;2023-04-23T05:35:16;100195.41;;;10.19;100.00
36380;BME280;22411;53.016;18.632;2023-04-23T05:37:42;100202.31;;;10.32;100.00
36380;BME280;22411;53.016;18.632;2023-04-23T05:40:09;100192.94;;;10.42;100.00
36380;BME280;22411;53.016;18.632;2023-04-23T05:42:35;100198.50;;;10.48;100.00
36380;BME280;22411;53.016;18.632;2023-04-23T05:45:03;100197.63;;;10.61;100.00
36380;BME280;22411;53.016;18.632;2023-04-23T05:47:30;100193.41;;;10.71;100.00
36380;BME280;22411;53.016;18.632;2023-04-23T05:49:56;100194.16;;;10.84;100.00
36380;BME280;22411;53.016;18.632;2023-04-23T05:52:22;100195.94;;;10.95;100.00
36380;BME280;22411;53.016;18.632;2023-04-23T05:54:50;100200.09;;;11.09;100.00
36380;BME280;22411;53.016;18.632;2023-04-23T05:57:17;100197.53;;;11.20;100.00
36380;BME280;22411;53.016;18.632;2023-04-23T05:59:43;100188.78;;;11.32;100.00
36380;BME280;22411;53.016;18.632;2023-04-23T06:02:09;100193.91;;;11.45;100.00
36380;BME280;22411;53.016;18.632;2023-04-23T06:04:36;100192.13;;;11.57;100.00
36380;BME280;22411;53.016;18.632;2023-04-23T06:07:03;100200.72;;;11.68;100.00
36380;BME280;22411;53.016;18.632;2023-04-23T06:09:29;100197.41;;;11.77;100.00
36380;BME280;22411;53.016;18.632;2023-04-23T06:11:55;100189.75;;;11.87;100.00
36380;BME280;22411;53.016;18.632;2023-04-23T06:14:21;100192.34;;;11.98;100.00
36380;BME280;22411;53.016;18.632;2023-04-23T06:16:48;100193.94;;;12.11;100.00
36380;BME280;22411;53.016;18.632;2023-04-23T06:19:14;100184.59;;;12.19;100.00
36380;BME280;22411;53.016;18.632;2023-04-23T06:21:40;100187.75;;;12.34;100.00
36380;BME280;22411;53.016;18.632;2023-04-23T06:24:06;100184.97;;;12.47;100.00
36380;BME280;22411;53.016;18.632;2023-04-23T06:26:33;100177.81;;;12.60;100.00
36380;BME280;22411;53.016;18.632;2023-04-23T06:28:59;100184.63;;;12.72;100.00
36380;BME280;22411;53.016;18.632;2023-04-23T06:31:26;100189.06;;;12.81;100.00
36380;BME280;22411;53.016;18.632;2023-04-23T06:33:52;100189.56;;;12.96;100.00
36380;BME280;22411;53.016;18.632;2023-04-23T06:36:19;100191.84;;;13.11;100.00
36380;BME280;22411;53.016;18.632;2023-04-23T06:38:45;100184.91;;;13.21;100.00
36380;BME280;22411;53.016;18.632;2023-04-23T06:41:12;100190.88;;;13.32;100.00
36380;BME280;22411;53.016;18.632;2023-04-23T06:43:38;100182.16;;;13.43;100.00
36380;BME280;22411;53.016;18.632;2023-04-23T06:46:04;100187.03;;;13.57;100.00
36380;BME280;22411;53.016;18.632;2023-04-23T06:48:30;100182.28;;;13.72;100.00
36380;BME280;22411;53.016;18.632;2023-04-23T06:51:01;100181.75;;;13.88;100.00
36380;BME280;22411;53.016;18.632;2023-04-23T06:53:28;100183.53;;;13.97;100.00
36380;BME280;22411;53.016;18.632;2023-04-23T06:55:55;100177.69;;;14.05;100.00
36380;BME280;22411;53.016;18.632;2023-04-23T06:58:25;100176.59;;;14.17;100.00
36380;BME280;22411;53.016;18.632;2023-04-23T07:00:59;100173.31;;;14.34;100.00
36380;BME280;22411;53.016;18.632;2023-04-23T07:03:26;100176.06;;;14.43;100.00
36380;BME280;22411;53.016;18.632;2023-04-23T07:05:53;100176.34;;;14.59;100.00
36380;BME280;22411;53.016;18.632;2023-04-23T07:08:20;100170.03;;;14.71;100.00
36380;BME280;22411;53.016;18.632;2023-04-23T07:10:48;100169.72;;;14.84;100.00
36380;BME280;22411;53.016;18.632;2023-04-23T07:13:18;100166.16;;;14.95;100.00
36380;BME280;22411;53.016;18.632;2023-04-23T07:15:47;100171.19;;;15.06;100.00
36380;BME280;22411;53.016;18.632;2023-04-23T07:18:13;100164.69;;;15.20;100.00
36380;BME280;22411;53.016;18.632;2023-04-23T07:20:39;100160.78;;;15.33;100.00
36380;BME280;22411;53.016;18.632;2023-04-23T07:23:05;100161.72;;;15.42;100.00
36380;BME280;22411;53.016;18.632;2023-04-23T07:25:31;100162.75;;;15.59;100.00
36380;BME280;22411;53.016;18.632;2023-04-23T07:27:57;100159.84;;;15.72;100.00
36380;BME280;22411;53.016;18.632;2023-04-23T07:30:25;100147.38;;;15.83;100.00
36380;BME280;22411;53.016;18.632;2023-04-23T07:32:53;100156.50;;;15.97;100.00
36380;BME280;22411;53.016;18.632;2023-04-23T07:35:20;100142.47;;;16.16;100.00
36380;BME280;22411;53.016;18.632;2023-04-23T07:37:46;100145.06;;;16.34;100.00
36380;BME280;22411;53.016;18.632;2023-04-23T07:40:16;100142.22;;;16.45;100.00
36380;BME280;22411;53.016;18.632;2023-04-23T07:42:43;100142.19;;;16.63;100.00
36380;BME280;22411;53.016;18.632;2023-04-23T07:45:10;100148.03;;;16.75;100.00
36380;BME280;22411;53.016;18.632;2023-04-23T07:47:37;100141.72;;;16.85;100.00
36380;BME280;22411;53.016;18.632;2023-04-23T07:50:04;100147.53;;;16.97;100.00
36380;BME280;22411;53.016;18.632;2023-04-23T07:52:29;100145.97;;;17.12;100.00
36380;BME280;22411;53.016;18.632;2023-04-23T07:54:56;100140.00;;;17.28;100.00
36380;BME280;22411;53.016;18.632;2023-04-23T07:57:21;100145.47;;;17.43;100.00
36380;BME280;22411;53.016;18.632;2023-04-23T07:59:48;100143.06;;;17.66;100.00
36380;BME280;22411;53.016;18.632;2023-04-23T08:02:14;100139.38;;;17.76;100.00
36380;BME280;22411;53.016;18.632;2023-04-23T08:04:40;100143.00;;;17.92;100.00
36380;BME280;22411;53.016;18.632;2023-04-23T08:07:09;100143.56;;;18.03;99.45
36380;BME280;22411;53.016;18.632;2023-04-23T08:09:36;100131.75;;;18.24;100.00
36380;BME280;22411;53.016;18.632;2023-04-23T08:12:02;100135.19;;;18.49;95.87
36380;BME280;22411;53.016;18.632;2023-04-23T08:14:28;100132.91;;;18.62;94.16
36380;BME280;22411;53.016;18.632;2023-04-23T08:16:54;100135.03;;;18.67;85.57
36380;BME280;22411;53.016;18.632;2023-04-23T08:19:20;100125.03;;;18.78;92.92
36380;BME280;22411;53.016;18.632;2023-04-23T08:21:46;100128.94;;;18.91;86.11
36380;BME280;22411;53.016;18.632;2023-04-23T08:24:13;100129.88;;;18.98;83.94
36380;BME280;22411;53.016;18.632;2023-04-23T08:26:40;100124.94;;;19.11;77.60
36380;BME280;22411;53.016;18.632;2023-04-23T08:29:06;100125.88;;;19.26;84.31
36380;BME280;22411;53.016;18.632;2023-04-23T08:31:33;100122.00;;;19.45;75.82
36380;BME280;22411;53.016;18.632;2023-04-23T08:33:59;100127.22;;;19.53;74.96
36380;BME280;22411;53.016;18.632;2023-04-23T08:36:25;100118.47;;;19.69;75.76
36380;BME280;22411;53.016;18.632;2023-04-23T08:38:52;100116.94;;;19.83;75.00
36380;BME280;22411;53.016;18.632;2023-04-23T08:41:21;100123.72;;;20.00;75.82
36380;BME280;22411;53.016;18.632;2023-04-23T08:44:05;100124.47;;;20.09;66.58
36380;BME280;22411;53.016;18.632;2023-04-23T08:46:34;100129.47;;;20.19;66.36
36380;BME280;22411;53.016;18.632;2023-04-23T08:49:02;100115.34;;;20.20;64.95
36380;BME280;22411;53.016;18.632;2023-04-23T08:51:29;100115.69;;;20.17;67.24
36380;BME280;22411;53.016;18.632;2023-04-23T08:53:57;100116.28;;;20.27;69.19
36380;BME280;22411;53.016;18.632;2023-04-23T08:56:26;100112.22;;;20.39;64.58
36380;BME280;22411;53.016;18.632;2023-04-23T08:58:52;100112.63;;;20.28;62.93
36380;BME280;22411;53.016;18.632;2023-04-23T09:01:19;100105.66;;;20.20;61.86
36380;BME280;22411;53.016;18.632;2023-04-23T09:03:45;100101.88;;;20.37;61.39
36380;BME280;22411;53.016;18.632;2023-04-23T09:06:11;100096.97;;;20.57;64.47
36380;BME280;22411;53.016;18.632;2023-04-23T09:08:39;100102.22;;;20.57;65.06
36380;BME280;22411;53.016;18.632;2023-04-23T09:11:07;100092.81;;;20.78;61.82
36380;BME280;22411;53.016;18.632;2023-04-23T09:13:34;100100.78;;;20.99;59.44
36380;BME280;22411;53.016;18.632;2023-04-23T09:16:00;100095.97;;;21.03;58.08
36380;BME280;22411;53.016;18.632;2023-04-23T09:18:27;100089.78;;;21.10;58.96
36380;BME280;22411;53.016;18.632;2023-04-23T09:20:52;100085.75;;;21.29;60.46
36380;BME280;22411;53.016;18.632;2023-04-23T09:23:21;100082.66;;;21.40;55.61
36380;BME280;22411;53.016;18.632;2023-04-23T09:25:48;100094.81;;;21.56;57.22
36380;BME280;22411;53.016;18.632;2023-04-23T09:28:15;100096.75;;;21.84;50.34
36380;BME280;22411;53.016;18.632;2023-04-23T09:30:44;100092.78;;;21.95;49.29
36380;BME280;22411;53.016;18.632;2023-04-23T09:33:11;100092.53;;;21.89;52.48
36380;BME280;22411;53.016;18.632;2023-04-23T09:35:38;100090.25;;;22.08;48.47
36380;BME280;22411;53.016;18.632;2023-04-23T09:38:06;100074.25;;;21.88;47.18
36380;BME280;22411;53.016;18.632;2023-04-23T09:40:33;100073.31;;;21.74;49.58
36380;BME280;22411;53.016;18.632;2023-04-23T09:43:03;100066.22;;;22.17;50.80
36380;BME280;22411;53.016;18.632;2023-04-23T09:45:30;100063.72;;;22.31;48.74
36380;BME280;22411;53.016;18.632;2023-04-23T09:47:57;100052.38;;;22.37;50.35
36380;BME280;22411;53.016;18.632;2023-04-23T09:50:38;100071.09;;;22.42;48.10
36380;BME280;22411;53.016;18.632;2023-04-23T09:53:06;100064.94;;;22.63;46.92
36380;BME280;22411;53.016;18.632;2023-04-23T09:55:39;100070.00;;;22.64;38.56
36380;BME280;22411;53.016;18.632;2023-04-23T09:58:12;100064.84;;;22.50;42.09
36380;BME280;22411;53.016;18.632;2023-04-23T10:00:40;100055.41;;;22.68;41.68
36380;BME280;22411;53.016;18.632;2023-04-23T10:03:07;100043.94;;;22.55;41.93
36380;BME280;22411;53.016;18.632;2023-04-23T10:05:38;100051.50;;;22.58;43.31
36380;BME280;22411;53.016;18.632;2023-04-23T10:08:07;100045.31;;;22.79;42.28
36380;BME280;22411;53.016;18.632;2023-04-23T10:10:41;100035.50;;;23.07;41.86
36380;BME280;22411;53.016;18.632;2023-04-23T10:13:21;100032.06;;;23.13;42.66
36380;BME280;22411;53.016;18.632;2023-04-23T10:15:48;100022.31;;;23.14;41.47
36380;BME280;22411;53.016;18.632;2023-04-23T10:18:15;100011.16;;;23.18;40.82
36380;BME280;22411;53.016;18.632;2023-04-23T10:20:41;100019.28;;;23.17;37.26
36380;BME280;22411;53.016;18.632;2023-04-23T10:23:12;100017.16;;;22.92;36.18
36380;BME280;22411;53.016;18.632;2023-04-23T10:25:38;100021.31;;;22.74;36.50
36380;BME280;22411;53.016;18.632;2023-04-23T10:28:07;100012.97;;;23.11;37.73
36380;BME280;22411;53.016;18.632;2023-04-23T10:30:36;100022.28;;;23.07;34.61
36380;BME280;22411;53.016;18.632;2023-04-23T10:33:03;100017.22;;;23.06;33.84
36380;BME280;22411;53.016;18.632;2023-04-23T10:35:29;100009.66;;;22.96;36.00
36380;BME280;22411;53.016;18.632;2023-04-23T10:37:55;100007.91;;;23.23;37.60
36380;BME280;22411;53.016;18.632;2023-04-23T10:40:28;100000.84;;;23.57;36.42
36380;BME280;22411;53.016;18.632;2023-04-23T10:42:55;99982.59;;;23.82;36.26
36380;BME280;22411;53.016;18.632;2023-04-23T10:45:21;99999.91;;;23.97;34.46
36380;BME280;22411;53.016;18.632;2023-04-23T10:47:47;99990.13;;;23.91;34.29
36380;BME280;22411;53.016;18.632;2023-04-23T10:50:28;99988.72;;;23.76;33.68
36380;BME280;22411;53.016;18.632;2023-04-23T10:52:56;100006.09;;;23.30;33.08
36380;BME280;22411;53.016;18.632;2023-04-23T10:55:27;99996.19;;;23.52;34.21
36380;BME280;22411;53.016;18.632;2023-04-23T10:57:58;99977.69;;;23.59;33.92
36380;BME280;22411;53.016;18.632;2023-04-23T11:00:26;100005.13;;;23.38;34.26
36380;BME280;22411;53.016;18.632;2023-04-23T11:02:54;100000.69;;;23.65;33.33
36380;BME280;22411;53.016;18.632;2023-04-23T11:05:21;99997.06;;;23.79;32.65
36380;BME280;22411;53.016;18.632;2023-04-23T11:08:03;99986.88;;;23.69;33.85
36380;BME280;22411;53.016;18.632;2023-04-23T11:10:56;100004.97;;;23.72;31.84
36380;BME280;22411;53.016;18.632;2023-04-23T11:13:23;99992.34;;;23.88;32.75
36380;BME280;22411;53.016;18.632;2023-04-23T11:16:21;99980.78;;;23.95;32.70
36380;BME280;22411;53.016;18.632;2023-04-23T11:19:24;99981.56;;;24.03;32.47
36380;BME280;22411;53.016;18.632;2023-04-23T11:22:18;99976.28;;;24.03;32.84
36380;BME280;22411;53.016;18.632;2023-04-23T11:24:46;99965.91;;;23.74;31.96
36380;BME280;22411;53.016;18.632;2023-04-23T11:27:14;99971.00;;;23.89;33.55
36380;BME280;22411;53.016;18.632;2023-04-23T11:29:41;99939.47;;;23.74;32.72
36380;BME280;22411;53.016;18.632;2023-04-23T11:32:08;99966.31;;;23.71;33.55
36380;BME280;22411;53.016;18.632;2023-04-23T11:34:38;99943.31;;;23.85;33.21
36380;BME280;22411;53.016;18.632;2023-04-23T11:37:04;99972.84;;;23.76;33.27
36380;BME280;22411;53.016;18.632;2023-04-23T11:39:31;99972.41;;;23.92;32.39
36380;BME280;22411;53.016;18.632;2023-04-23T11:41:59;99960.78;;;24.13;33.07
36380;BME280;22411;53.016;18.632;2023-04-23T11:44:29;99955.09;;;24.03;33.19
36380;BME280;22411;53.016;18.632;2023-04-23T11:46:59;99951.84;;;24.07;32.07
36380;BME280;22411;53.016;18.632;2023-04-23T11:49:29;99949.94;;;24.34;33.57
36380;BME280;22411;53.016;18.632;2023-04-23T11:51:58;99966.22;;;24.51;32.48
36380;BME280;22411;53.016;18.632;2023-04-23T11:54:26;99942.56;;;24.56;32.37
36380;BME280;22411;53.016;18.632;2023-04-23T11:56:53;99946.66;;;24.59;32.51
36380;BME280;22411;53.016;18.632;2023-04-23T11:59:20;99923.66;;;24.52;32.60
36380;BME280;22411;53.016;18.632;2023-04-23T12:01:51;99940.25;;;24.80;32.29
36380;BME280;22411;53.016;18.632;2023-04-23T12:04:23;99964.47;;;24.90;31.83
36380;BME280;22411;53.016;18.632;2023-04-23T12:06:51;99960.78;;;24.91;31.16
36380;BME280;22411;53.016;18.632;2023-04-23T12:09:19;99935.50;;;24.88;32.95
36380;BME280;22411;53.016;18.632;2023-04-23T12:11:46;99929.13;;;25.02;31.46
36380;BME280;22411;53.016;18.632;2023-04-23T12:14:19;99924.81;;;25.40;32.26
36380;BME280;22411;53.016;18.632;2023-04-23T12:16:49;99938.03;;;25.46;31.43
36380;BME280;22411;53.016;18.632;2023-04-23T12:19:21;99945.63;;;25.43;30.90
36380;BME280;22411;53.016;18.632;2023-04-23T12:21:55;99936.94;;;25.29;31.90
36380;BME280;22411;53.016;18.632;2023-04-23T12:24:23;99935.97;;;25.48;30.53
36380;BME280;22411;53.016;18.632;2023-04-23T12:26:54;99937.22;;;25.14;31.04
36380;BME280;22411;53.016;18.632;2023-04-23T12:29:21;99930.88;;;24.77;31.71
36380;BME280;22411;53.016;18.632;2023-04-23T12:31:48;99926.50;;;24.58;32.92
36380;BME280;22411;53.016;18.632;2023-04-23T12:34:18;99924.72;;;24.90;34.50
36380;BME280;22411;53.016;18.632;2023-04-23T12:36:50;99923.22;;;25.07;33.50
36380;BME280;22411;53.016;18.632;2023-04-23T12:39:27;99923.72;;;24.84;32.77
36380;BME280;22411;53.016;18.632;2023-04-23T12:42:01;99925.06;;;24.93;33.61
36380;BME280;22411;53.016;18.632;2023-04-23T12:44:30;99910.19;;;24.54;34.25